Kuwait City, Kuwait
Current Conditions -  °F | °C
As of 12:00 AM on Tuesday 21 Oct 2014 (Local Time) from OKBK Reporting Station
Haze Haze  
Wind Chill: 86°   Ceiling: Unl
Heat Index: 86°   Visibility: 2.8mi
Dew Point: 52°   Wind: 5mph
Humidity: 31%   Direction: 340°NNW
Pressure: 29.74"   Gusts: NA
Location:  29.22°N, 47.98°E
Report Text: OKBK 202100Z 34004KT 4500 -HZ NSC 30/11 Q1007 NOSIG
Loading
Personal Weather Stations






























Interactive Weather Map
Tropical Storm Tracking
New forecast layout! Learn more

10-Day Weather Forecast

Advertisements
Track Severe Weather on mobile